Time;durP1;ratioP1;P1;durP2;ratioP2;P2;SDS_P1;SDS_P2;PMS_P1;PMS_P2;Temp;Humidity;BMP_temperature;BMP_pressure;BME280_temperature;BME280_humidity;BME280_pressure;Samples;Min_cycle;Max_cycle;Signal;HPM_P1;HPM_P2
2022/10/27 00:02:02;;;;;;;0.10;0.10;;;12.80;99.90;;;;;;5034425;28;20476;-75
2022/10/27 00:04:28;;;;;;;0.50;0.50;;;12.70;99.90;;;;;;5016626;28;20021;-75
2022/10/27 00:06:56;;;;;;;0.10;0.10;;;12.70;99.90;;;;;;5016606;28;20028;-75
2022/10/27 00:09:22;;;;;;;0.38;0.38;;;12.70;99.90;;;;;;5034502;28;20408;-75
2022/10/27 00:11:48;;;;;;;0.30;0.30;;;12.60;99.90;;;;;;5034351;28;20083;-75
2022/10/27 00:14:14;;;;;;;0.20;0.20;;;12.60;99.90;;;;;;5034292;28;20025;-75
2022/10/27 00:16:40;;;;;;;0.10;0.10;;;12.70;99.90;;;;;;5034123;28;20503;-76
2022/10/27 00:19:05;;;;;;;0.10;0.10;;;12.70;99.90;;;;;;5034249;28;20032;-75
2022/10/27 00:21:31;;;;;;;0.10;0.10;;;12.70;99.90;;;;;;5034253;28;20100;-75
2022/10/27 00:23:57;;;;;;;0.05;0.05;;;12.70;99.90;;;;;;5016344;28;20091;-76
2022/10/27 00:26:22;;;;;;;0.30;0.30;;;12.70;99.90;;;;;;5033970;28;20033;-76
2022/10/27 00:28:48;;;;;;;0.13;0.13;;;12.60;99.90;;;;;;5016358;28;20022;-75
2022/10/27 00:31:18;;;;;;;0.35;0.35;;;12.60;99.90;;;;;;5016158;28;20389;-74
2022/10/27 00:33:45;;;;;;;0.10;0.10;;;12.50;99.90;;;;;;5033807;28;20025;-75
2022/10/27 00:36:14;;;;;;;0.10;0.10;;;12.50;99.90;;;;;;5033661;28;20440;-75
2022/10/27 00:38:40;;;;;;;0.10;0.10;;;12.50;99.90;;;;;;5032620;28;20040;-75
2022/10/27 00:41:08;;;;;;;0.10;0.10;;;12.60;99.90;;;;;;5016153;28;20029;-75
2022/10/27 00:43:36;;;;;;;0.10;0.10;;;12.50;99.90;;;;;;5033673;28;20070;-75
2022/10/27 00:46:19;;;;;;;7.38;6.72;;;12.50;99.90;;;;;;5033520;28;20026;-75
2022/10/27 00:48:48;;;;;;;0.10;0.10;;;12.60;99.90;;;;;;5033706;28;20489;-75
2022/10/27 00:51:16;;;;;;;0.10;0.10;;;12.60;99.90;;;;;;4999471;28;20025;-75
2022/10/27 00:53:43;;;;;;;0.10;0.10;;;12.50;99.90;;;;;;5015535;28;20033;-75
2022/10/27 00:56:09;;;;;;;0.47;0.47;;;12.50;99.90;;;;;;5033397;28;20025;-74
2022/10/27 00:58:35;;;;;;;0.10;0.10;;;12.50;99.90;;;;;;5032546;28;20025;-75
2022/10/27 01:01:01;;;;;;;0.10;0.10;;;12.50;99.90;;;;;;5033390;28;20029;-75
2022/10/27 01:03:28;;;;;;;0.10;0.10;;;12.50;99.90;;;;;;5025741;28;20025;-75
2022/10/27 01:05:55;;;;;;;0.10;0.10;;;12.50;99.90;;;;;;5052979;28;20021;-75
2022/10/27 01:08:23;;;;;;;0.13;0.13;;;12.40;99.90;;;;;;5053113;28;20021;-75
2022/10/27 01:10:49;;;;;;;0.45;0.43;;;12.50;99.90;;;;;;5041695;28;20053;-75
2022/10/27 01:13:16;;;;;;;0.10;0.10;;;12.60;99.90;;;;;;5031389;28;20022;-75
2022/10/27 01:15:57;;;;;;;0.10;0.10;;;12.50;99.90;;;;;;5015124;28;20061;-75
2022/10/27 01:19:07;;;;;;;0.10;0.10;;;12.60;99.90;;;;;;5015260;28;20064;-76
2022/10/27 01:21:41;;;;;;;0.10;0.10;;;12.90;99.90;;;;;;5032456;28;20128;-75
2022/10/27 01:24:29;;;;;;;1.40;1.30;;;12.90;99.90;;;;;;5015115;28;20033;-75
2022/10/27 01:27:06;;;;;;;0.15;0.15;;;12.90;99.90;;;;;;5032762;28;20285;-75
2022/10/27 01:29:56;;;;;;;0.20;0.20;;;13.00;99.90;;;;;;5015208;28;20021;-75
2022/10/27 01:32:55;;;;;;;0.10;0.10;;;13.00;99.90;;;;;;5015032;28;20022;-75
2022/10/27 01:35:42;;;;;;;0.10;0.10;;;13.00;99.90;;;;;;5032652;28;20026;-74
2022/10/27 01:38:31;;;;;;;0.10;0.10;;;13.10;99.90;;;;;;4998644;28;20021;-75
2022/10/27 01:41:08;;;;;;;0.10;0.10;;;13.10;99.90;;;;;;5032743;28;20071;-76
2022/10/27 01:43:34;;;;;;;0.10;0.10;;;13.00;99.90;;;;;;5014787;28;20571;-75
2022/10/27 01:46:02;;;;;;;0.10;0.10;;;13.00;99.90;;;;;;5014532;28;20075;-75
2022/10/27 01:48:32;;;;;;;0.10;0.10;;;12.90;99.90;;;;;;5014824;28;20388;-75
2022/10/27 01:50:58;;;;;;;0.10;0.10;;;12.90;99.90;;;;;;4998542;28;20017;-75
2022/10/27 01:53:24;;;;;;;0.10;0.10;;;12.90;99.90;;;;;;5032399;28;20037;-74
2022/10/27 01:56:10;;;;;;;0.10;0.10;;;12.90;99.90;;;;;;5032316;28;20104;-76
2022/10/27 01:58:47;;;;;;;0.10;0.10;;;12.90;99.90;;;;;;5001457;28;20041;-75
2022/10/27 02:01:28;;;;;;;0.10;0.10;;;12.80;99.90;;;;;;5014644;28;20394;-75
2022/10/27 02:04:09;;;;;;;0.50;0.50;;;12.80;99.90;;;;;;5031206;28;20032;-76
2022/10/27 02:06:54;;;;;;;0.10;0.10;;;12.60;99.90;;;;;;5032226;28;20022;-75
2022/10/27 02:09:25;;;;;;;0.43;0.43;;;12.50;99.90;;;;;;5011439;28;20026;-75
2022/10/27 02:11:54;;;;;;;0.13;0.13;;;12.60;99.90;;;;;;5012534;28;20018;-75
2022/10/27 02:14:20;;;;;;;0.10;0.10;;;12.40;99.90;;;;;;5011254;28;20025;-75
2022/10/27 02:16:51;;;;;;;0.55;0.55;;;12.40;99.90;;;;;;5012323;28;20113;-75
2022/10/27 02:19:19;;;;;;;0.10;0.10;;;12.30;99.90;;;;;;5011154;28;20122;-75
2022/10/27 02:21:49;;;;;;;0.20;0.20;;;12.30;99.90;;;;;;4994804;28;20037;-75
2022/10/27 02:24:15;;;;;;;0.10;0.10;;;12.50;99.90;;;;;;4994755;28;20034;-75
2022/10/27 02:26:50;;;;;;;0.10;0.10;;;12.60;99.90;;;;;;5012163;28;20029;-75
2022/10/27 02:29:34;;;;;;;0.10;0.10;;;12.60;99.90;;;;;;5012378;28;20025;-75
2022/10/27 02:32:04;;;;;;;0.10;0.10;;;12.40;99.90;;;;;;5011379;28;20080;-75
2022/10/27 02:34:32;;;;;;;0.13;0.13;;;12.20;99.90;;;;;;4978445;28;20036;-75
2022/10/27 02:36:58;;;;;;;0.13;0.13;;;12.10;99.90;;;;;;5012173;28;20046;-75
2022/10/27 02:39:24;;;;;;;0.20;0.20;;;12.10;99.90;;;;;;5012262;28;20473;-75
2022/10/27 02:41:50;;;;;;;0.10;0.10;;;12.20;99.90;;;;;;5011025;28;20040;-75
2022/10/27 02:44:16;;;;;;;0.10;0.10;;;12.20;99.90;;;;;;5010864;28;20478;-75
2022/10/27 02:46:42;;;;;;;0.10;0.10;;;12.30;99.90;;;;;;5012086;28;20030;-75
2022/10/27 02:49:07;;;;;;;0.10;0.10;;;12.40;99.90;;;;;;5012137;28;20389;-74
2022/10/27 02:51:33;;;;;;;0.20;0.20;;;12.30;99.90;;;;;;5011929;28;20152;-75
2022/10/27 02:53:59;;;;;;;0.10;0.10;;;12.40;99.90;;;;;;5010957;28;20026;-74
2022/10/27 02:56:25;;;;;;;0.10;0.10;;;12.40;99.90;;;;;;4994175;28;20371;-75
2022/10/27 02:58:50;;;;;;;0.10;0.10;;;12.50;99.90;;;;;;5012140;28;20030;-75
2022/10/27 03:01:16;;;;;;;0.20;0.20;;;12.70;99.90;;;;;;5011976;28;20109;-75
2022/10/27 03:03:42;;;;;;;0.10;0.10;;;12.70;99.90;;;;;;5010428;28;20034;-75
2022/10/27 03:06:07;;;;;;;0.10;0.10;;;12.50;99.90;;;;;;5010440;28;20429;-74
2022/10/27 03:08:33;;;;;;;0.10;0.10;;;12.60;99.90;;;;;;5011924;28;20473;-74
2022/10/27 03:10:59;;;;;;;0.10;0.10;;;12.50;99.90;;;;;;5011974;28;20015;-75
2022/10/27 03:13:25;;;;;;;0.10;0.10;;;12.40;99.90;;;;;;5011908;28;20036;-75
2022/10/27 03:15:50;;;;;;;0.10;0.10;;;12.30;99.90;;;;;;5011671;28;20017;-75
2022/10/27 03:18:16;;;;;;;0.10;0.10;;;12.30;99.90;;;;;;5011942;28;20432;-75
2022/10/27 03:20:45;;;;;;;0.10;0.10;;;12.30;99.90;;;;;;5011805;28;20034;-75
2022/10/27 03:23:12;;;;;;;0.10;0.10;;;12.40;99.90;;;;;;5011722;28;20025;-75
2022/10/27 03:25:42;;;;;;;0.10;0.10;;;12.40;99.90;;;;;;5011517;28;20064;-75
2022/10/27 03:28:08;;;;;;;0.10;0.10;;;12.50;99.90;;;;;;5010780;28;20554;-75
2022/10/27 03:30:34;;;;;;;0.50;0.50;;;12.40;99.90;;;;;;5011750;28;20033;-75
2022/10/27 03:33:00;;;;;;;0.10;0.10;;;12.50;99.90;;;;;;4994139;28;20113;-75
2022/10/27 03:35:26;;;;;;;0.90;0.90;;;12.50;99.90;;;;;;5011518;28;20026;-74
2022/10/27 03:37:56;;;;;;;0.10;0.10;;;12.60;99.90;;;;;;5011680;28;20022;-75
2022/10/27 03:40:23;;;;;;;0.10;0.10;;;12.60;99.90;;;;;;5011602;28;20030;-75
2022/10/27 03:42:49;;;;;;;0.10;0.10;;;12.60;99.90;;;;;;4994099;28;20084;-75
2022/10/27 03:45:15;;;;;;;0.17;0.17;;;12.60;99.90;;;;;;5014793;28;20482;-75
2022/10/27 03:47:41;;;;;;;0.10;0.10;;;12.60;99.90;;;;;;4997609;28;20152;-75
2022/10/27 03:50:07;;;;;;;0.10;0.10;;;12.60;99.90;;;;;;5013772;28;20497;-75
2022/10/27 03:52:33;;;;;;;0.10;0.10;;;12.60;99.90;;;;;;5014879;28;20034;-75
2022/10/27 03:54:59;;;;;;;0.10;0.10;;;12.60;99.90;;;;;;4997219;28;20025;-74
2022/10/27 03:57:25;;;;;;;0.52;0.20;;;12.60;99.90;;;;;;5014906;28;20403;-75
2022/10/27 03:59:50;;;;;;;0.20;0.20;;;12.50;99.90;;;;;;4997576;28;20044;-75
2022/10/27 04:02:16;;;;;;;0.20;0.20;;;12.30;99.90;;;;;;5014464;28;20041;-74
2022/10/27 04:04:43;;;;;;;0.10;0.10;;;12.10;99.90;;;;;;5014692;28;20101;-74
2022/10/27 04:07:08;;;;;;;0.63;0.63;;;12.10;99.90;;;;;;5014616;28;20018;-75
2022/10/27 04:09:34;;;;;;;0.10;0.10;;;11.90;99.90;;;;;;5014631;28;20026;-74
2022/10/27 04:12:00;;;;;;;0.20;0.20;;;12.00;99.90;;;;;;5014656;28;20087;-75
2022/10/27 04:14:25;;;;;;;0.13;0.13;;;12.10;99.90;;;;;;5013348;28;20030;-75
2022/10/27 04:16:51;;;;;;;0.10;0.10;;;12.20;99.90;;;;;;5014423;28;20041;-75
2022/10/27 04:19:18;;;;;;;0.10;0.10;;;12.20;99.90;;;;;;4996997;28;20034;-75
2022/10/27 04:21:44;;;;;;;0.10;0.10;;;12.20;99.90;;;;;;4996814;28;20043;-75
2022/10/27 04:24:10;;;;;;;0.10;0.10;;;12.10;99.90;;;;;;4996810;28;20504;-75
2022/10/27 04:26:37;;;;;;;0.10;0.10;;;12.00;99.90;;;;;;5014202;28;20022;-75
2022/10/27 04:29:03;;;;;;;0.20;0.20;;;12.00;99.90;;;;;;5013127;28;20033;-74
2022/10/27 04:31:29;;;;;;;0.10;0.10;;;12.00;99.90;;;;;;5016921;28;20436;-75
2022/10/27 04:33:55;;;;;;;0.10;0.10;;;12.00;99.90;;;;;;5041567;28;20034;-75
2022/10/27 04:36:21;;;;;;;0.20;0.20;;;11.90;99.90;;;;;;5030704;28;20420;-75
2022/10/27 04:38:50;;;;;;;0.20;0.20;;;11.90;99.90;;;;;;5053707;28;20032;-75
2022/10/27 04:41:16;;;;;;;0.20;0.20;;;11.90;99.90;;;;;;4996437;28;20030;-75
2022/10/27 04:43:42;;;;;;;0.10;0.10;;;11.90;99.90;;;;;;5012587;28;20026;-75
2022/10/27 04:46:08;;;;;;;0.13;0.13;;;11.90;99.90;;;;;;5013612;28;20026;-75
2022/10/27 04:48:34;;;;;;;0.30;0.30;;;11.90;99.90;;;;;;4996343;28;20025;-75
2022/10/27 04:50:59;;;;;;;0.20;0.20;;;11.90;99.90;;;;;;4996314;28;20025;-74
2022/10/27 04:53:25;;;;;;;0.10;0.10;;;11.90;99.90;;;;;;4996344;28;20501;-75
2022/10/27 04:55:53;;;;;;;0.20;0.20;;;11.90;99.90;;;;;;5012294;28;20413;-74
2022/10/27 04:58:19;;;;;;;0.10;0.10;;;11.80;99.90;;;;;;5013815;28;20390;-75
2022/10/27 05:00:46;;;;;;;0.15;0.15;;;11.80;99.90;;;;;;5013753;28;20033;-75
2022/10/27 05:03:12;;;;;;;0.20;0.20;;;11.90;99.90;;;;;;4996739;28;20461;-74
2022/10/27 05:05:37;;;;;;;0.10;0.10;;;11.90;99.90;;;;;;5015224;28;20132;-73
2022/10/27 05:08:04;;;;;;;0.20;0.20;;;11.90;99.90;;;;;;5033314;28;20386;-74
2022/10/27 05:10:31;;;;;;;0.10;0.10;;;11.90;99.90;;;;;;5015523;28;20029;-73
2022/10/27 05:12:58;;;;;;;0.10;0.10;;;11.80;99.90;;;;;;5031976;28;20039;-74
2022/10/27 05:15:24;;;;;;;0.10;0.10;;;11.80;99.90;;;;;;5032877;28;20450;-75
2022/10/27 05:17:50;;;;;;;0.13;0.13;;;11.90;99.90;;;;;;5033149;28;20141;-74
2022/10/27 05:20:16;;;;;;;0.20;0.20;;;12.00;99.90;;;;;;5033212;28;20057;-74
2022/10/27 05:22:41;;;;;;;0.15;0.15;;;11.90;99.90;;;;;;5015168;28;20107;-74
2022/10/27 05:25:08;;;;;;;0.10;0.10;;;12.00;99.90;;;;;;5032635;28;20026;-74
2022/10/27 05:27:35;;;;;;;0.20;0.20;;;11.90;99.90;;;;;;5015207;28;20049;-75
2022/10/27 05:30:00;;;;;;;0.10;0.10;;;11.80;99.90;;;;;;5015048;28;20125;-74
2022/10/27 05:32:26;;;;;;;0.10;0.10;;;11.70;99.90;;;;;;5032872;28;20032;-73
2022/10/27 05:34:52;;;;;;;0.40;0.40;;;11.60;99.90;;;;;;5032544;28;20397;-74
2022/10/27 05:37:18;;;;;;;0.20;0.20;;;11.50;99.90;;;;;;5032692;28;20705;-74
2022/10/27 05:39:43;;;;;;;0.20;0.20;;;11.30;99.90;;;;;;5032563;28;20100;-74
2022/10/27 05:42:09;;;;;;;0.20;0.20;;;11.20;99.90;;;;;;5014902;28;20483;-74
2022/10/27 05:44:35;;;;;;;0.20;0.20;;;11.30;99.90;;;;;;5013931;28;20057;-74
2022/10/27 05:47:01;;;;;;;0.73;0.73;;;11.40;99.90;;;;;;5032094;28;20477;-74
2022/10/27 05:49:26;;;;;;;0.20;0.20;;;11.30;99.90;;;;;;5014671;28;20049;-73
2022/10/27 05:51:52;;;;;;;0.10;0.10;;;11.30;99.90;;;;;;5032380;28;20033;-74
2022/10/27 05:54:18;;;;;;;0.20;0.20;;;11.40;99.90;;;;;;5014507;28;20542;-74
2022/10/27 05:56:44;;;;;;;0.20;0.20;;;11.30;99.90;;;;;;5032225;28;20045;-74
2022/10/27 05:59:11;;;;;;;0.38;0.38;;;11.50;99.90;;;;;;5014690;28;20073;-74
2022/10/27 06:01:37;;;;;;;0.10;0.10;;;11.50;99.90;;;;;;5031788;28;20029;-74
2022/10/27 06:04:03;;;;;;;0.20;0.20;;;11.60;99.90;;;;;;5031932;28;20108;-73
2022/10/27 06:06:29;;;;;;;0.10;0.10;;;11.50;99.90;;;;;;5031725;28;20458;-73
2022/10/27 06:08:55;;;;;;;0.20;0.20;;;11.50;99.90;;;;;;5032120;28;20144;-73
2022/10/27 06:11:21;;;;;;;0.10;0.10;;;11.50;99.90;;;;;;5014612;28;20029;-75
2022/10/27 06:13:50;;;;;;;0.10;0.10;;;11.60;99.90;;;;;;5031953;28;20466;-74
2022/10/27 06:16:18;;;;;;;0.17;0.17;;;11.70;99.90;;;;;;5031775;28;20178;-73
2022/10/27 06:18:44;;;;;;;0.20;0.20;;;11.70;99.90;;;;;;5035157;28;20385;-74
2022/10/27 06:21:10;;;;;;;0.20;0.20;;;11.60;99.90;;;;;;5051984;28;20033;-73
2022/10/27 06:23:36;;;;;;;0.30;0.30;;;11.60;99.90;;;;;;5051780;28;20526;-73
2022/10/27 06:26:03;;;;;;;0.40;0.40;;;11.70;99.90;;;;;;5033700;28;20044;-73
2022/10/27 06:28:28;;;;;;;0.10;0.10;;;11.70;99.90;;;;;;5051784;28;20022;-73
2022/10/27 06:30:54;;;;;;;0.20;0.20;;;11.70;99.90;;;;;;5033731;28;20021;-73
2022/10/27 06:33:20;;;;;;;0.10;0.10;;;11.70;99.90;;;;;;5051482;28;20041;-73
2022/10/27 06:35:46;;;;;;;0.20;0.20;;;11.70;99.90;;;;;;5051448;28;20025;-74
2022/10/27 06:38:15;;;;;;;0.17;0.17;;;11.70;99.90;;;;;;5024870;28;20032;-73
2022/10/27 06:40:45;;;;;;;0.10;0.10;;;11.80;99.90;;;;;;5014135;28;20026;-73
2022/10/27 06:43:12;;;;;;;0.10;0.10;;;11.90;99.90;;;;;;5031683;28;20109;-74
2022/10/27 06:45:39;;;;;;;0.17;0.17;;;12.00;99.90;;;;;;5031449;28;20509;-73
2022/10/27 06:48:07;;;;;;;0.10;0.10;;;12.20;99.90;;;;;;5031475;28;20026;-73
2022/10/27 06:50:33;;;;;;;0.10;0.10;;;12.30;99.90;;;;;;5030464;28;20022;-74
2022/10/27 06:53:00;;;;;;;0.10;0.10;;;12.40;99.90;;;;;;5031476;28;20091;-73
2022/10/27 06:55:26;;;;;;;0.10;0.10;;;12.40;99.90;;;;;;5030545;28;20108;-74
2022/10/27 06:57:52;;;;;;;0.10;0.10;;;12.50;99.90;;;;;;5030522;28;20432;-72
2022/10/27 07:00:18;;;;;;;0.10;0.10;;;12.60;99.90;;;;;;5013944;28;20029;-74
2022/10/27 07:02:44;;;;;;;0.10;0.10;;;12.60;99.90;;;;;;5031007;28;20025;-72
2022/10/27 07:05:10;;;;;;;0.10;0.10;;;12.60;99.90;;;;;;5036950;28;20029;-73
2022/10/27 07:07:36;;;;;;;0.20;0.20;;;12.60;99.90;;;;;;5031454;28;20473;-72
2022/10/27 07:10:04;;;;;;;0.20;0.20;;;12.70;99.90;;;;;;4997438;28;20022;-74
2022/10/27 07:12:30;;;;;;;0.10;0.10;;;12.70;99.90;;;;;;5030380;28;20036;-73
2022/10/27 07:14:55;;;;;;;0.10;0.10;;;12.70;99.90;;;;;;5013629;28;20025;-73
2022/10/27 07:17:21;;;;;;;0.20;0.20;;;12.90;99.90;;;;;;5031361;28;20431;-73
2022/10/27 07:19:47;;;;;;;0.17;0.17;;;13.00;99.90;;;;;;5034263;28;20021;-73
2022/10/27 07:22:13;;;;;;;2.85;1.17;;;13.10;99.90;;;;;;5035167;28;20453;-73
2022/10/27 07:24:38;;;;;;;0.10;0.10;;;13.20;99.90;;;;;;5017191;28;20053;-73
2022/10/27 07:27:04;;;;;;;0.10;0.10;;;13.20;99.90;;;;;;5017240;28;20056;-73
2022/10/27 07:29:30;;;;;;;0.17;0.17;;;13.30;99.90;;;;;;5017271;28;20392;-73
2022/10/27 07:31:57;;;;;;;0.10;0.10;;;13.30;99.90;;;;;;5035017;28;20021;-73
2022/10/27 07:34:22;;;;;;;0.20;0.20;;;13.40;99.90;;;;;;5034948;28;20029;-73
2022/10/27 07:36:48;;;;;;;0.10;0.10;;;13.40;99.90;;;;;;5034722;28;20037;-73
2022/10/27 07:39:14;;;;;;;0.10;0.10;;;13.50;99.90;;;;;;5034953;28;20032;-73
2022/10/27 07:41:40;;;;;;;0.32;0.32;;;13.50;99.90;;;;;;5034799;28;20025;-73
2022/10/27 07:44:05;;;;;;;1.27;0.57;;;13.50;99.90;;;;;;5034699;28;20497;-73
2022/10/27 07:46:31;;;;;;;0.10;0.10;;;13.60;99.90;;;;;;5034682;28;20032;-73
2022/10/27 07:48:57;;;;;;;0.10;0.10;;;13.60;99.90;;;;;;5034821;28;20045;-73
2022/10/27 07:51:23;;;;;;;0.17;0.17;;;13.60;99.90;;;;;;5034607;28;20033;-72
2022/10/27 07:53:49;;;;;;;0.10;0.10;;;13.70;99.90;;;;;;5034675;28;20025;-73
2022/10/27 07:56:18;;;;;;;0.20;0.20;;;13.70;99.90;;;;;;5034486;28;20048;-73
2022/10/27 07:58:48;;;;;;;0.10;0.10;;;13.70;99.90;;;;;;5033392;28;20030;-73
2022/10/27 08:01:14;;;;;;;0.17;0.17;;;13.60;99.90;;;;;;5016757;28;20026;-73
2022/10/27 08:03:39;;;;;;;0.10;0.10;;;13.50;99.90;;;;;;5034492;28;20056;-73
2022/10/27 08:06:05;;;;;;;0.20;0.20;;;13.50;99.90;;;;;;5034161;28;20064;-72
2022/10/27 08:08:31;;;;;;;0.10;0.10;;;13.60;99.90;;;;;;5034501;28;20029;-73
2022/10/27 08:10:57;;;;;;;0.00;0.00;;;13.50;99.90;;;;;;5034392;28;20032;-73
2022/10/27 08:13:23;;;;;;;0.10;0.10;;;13.40;99.90;;;;;;5034270;28;20025;-73
2022/10/27 08:15:49;;;;;;;0.10;0.10;;;13.50;99.90;;;;;;5034077;28;20167;-73
2022/10/27 08:18:15;;;;;;;0.10;0.10;;;13.60;99.90;;;;;;5034137;28;20060;-73
2022/10/27 08:20:43;;;;;;;0.10;0.10;;;13.80;99.90;;;;;;5034114;28;20389;-73
2022/10/27 08:23:12;;;;;;;0.10;0.10;;;13.80;99.90;;;;;;5033989;28;20044;-73
2022/10/27 08:25:37;;;;;;;0.13;0.13;;;14.00;99.90;;;;;;5033680;28;20018;-73
2022/10/27 08:28:03;;;;;;;0.10;0.10;;;14.00;99.90;;;;;;5033997;28;20525;-73
2022/10/27 08:30:32;;;;;;;0.10;0.10;;;14.10;99.90;;;;;;5033966;28;20030;-73
2022/10/27 08:32:59;;;;;;;0.10;0.10;;;14.10;99.90;;;;;;5033915;28;20584;-72
2022/10/27 08:35:27;;;;;;;0.10;0.10;;;14.10;99.90;;;;;;4999701;28;20032;-73
2022/10/27 08:37:59;;;;;;;0.13;0.13;;;14.20;99.90;;;;;;5033796;28;20025;-73
2022/10/27 08:40:49;;;;;;;0.20;0.20;;;14.20;99.90;;;;;;5033901;28;20025;-73
2022/10/27 08:43:41;;;;;;;0.10;0.10;;;14.30;99.90;;;;;;4983374;28;20497;-73
2022/10/27 08:46:19;;;;;;;0.10;0.10;;;14.50;99.90;;;;;;5015695;28;20024;-73
2022/10/27 08:48:46;;;;;;;39.85;18.00;;;14.60;99.90;;;;;;5033618;28;20481;-73
2022/10/27 08:51:20;;;;;;;0.10;0.10;;;14.80;99.90;;;;;;5033418;28;20018;-73
2022/10/27 08:53:50;;;;;;;0.10;0.10;;;14.90;99.90;;;;;;5033422;28;20481;-73
2022/10/27 08:56:16;;;;;;;0.20;0.20;;;15.10;99.90;;;;;;5033287;28;20037;-73
2022/10/27 08:58:46;;;;;;;0.63;0.63;;;15.30;99.90;;;;;;5033436;28;20087;-73
2022/10/27 09:01:29;;;;;;;0.10;0.10;;;15.50;99.90;;;;;;5015674;28;20112;-72
2022/10/27 09:04:04;;;;;;;0.10;0.10;;;15.60;99.90;;;;;;5033275;28;20057;-73
2022/10/27 09:06:35;;;;;;;0.10;0.10;;;15.80;99.90;;;;;;5033196;28;20029;-73
2022/10/27 09:09:21;;;;;;;1.73;0.22;;;15.80;99.90;;;;;;5032105;28;20026;-72
2022/10/27 09:12:14;;;;;;;0.10;0.10;;;15.90;99.90;;;;;;5033344;28;20024;-73
2022/10/27 09:15:08;;;;;;;0.10;0.10;;;16.00;99.90;;;;;;5015506;28;20065;-73
2022/10/27 09:17:40;;;;;;;0.10;0.10;;;16.20;99.90;;;;;;5033107;28;20381;-73
2022/10/27 09:20:32;;;;;;;0.10;0.10;;;16.40;99.90;;;;;;5033159;28;20018;-73
2022/10/27 09:23:01;;;;;;;0.08;0.08;;;16.90;99.90;;;;;;5022064;28;20045;-73
2022/10/27 09:25:27;;;;;;;0.10;0.10;;;17.50;99.90;;;;;;5031442;28;20091;-73
2022/10/27 09:27:57;;;;;;;2.95;2.75;;;17.90;99.90;;;;;;5015209;28;20477;-73
2022/10/27 09:30:23;;;;;;;0.10;0.10;;;18.40;99.90;;;;;;5015020;28;20108;-73
2022/10/27 09:32:52;;;;;;;4.70;1.48;;;18.60;99.90;;;;;;5032766;28;20041;-73
2022/10/27 09:35:23;;;;;;;0.20;0.20;;;18.70;99.90;;;;;;5032474;28;20496;-73
2022/10/27 09:37:51;;;;;;;0.10;0.10;;;19.00;99.90;;;;;;5014922;28;20022;-73
2022/10/27 09:40:19;;;;;;;0.03;0.03;;;19.20;99.90;;;;;;5014822;28;20036;-73
2022/10/27 09:42:49;;;;;;;0.10;0.10;;;19.40;99.90;;;;;;5031856;28;20104;-72
2022/10/27 09:45:18;;;;;;;0.08;0.08;;;19.70;99.90;;;;;;5032369;28;20393;-73
2022/10/27 09:47:48;;;;;;;0.10;0.10;;;19.80;99.90;;;;;;5032459;28;20091;-73
2022/10/27 09:50:24;;;;;;;0.10;0.10;;;19.50;99.90;;;;;;5027585;28;20041;-73
2022/10/27 09:52:51;;;;;;;0.00;0.00;;;19.20;99.90;;;;;;5019073;28;20409;-73
2022/10/27 09:55:18;;;;;;;0.08;0.08;;;19.00;99.90;;;;;;5012446;28;20167;-73
2022/10/27 09:57:47;;;;;;;0.00;0.00;;;18.90;99.90;;;;;;5012442;28;20026;-73
2022/10/27 10:00:15;;;;;;;0.00;0.00;;;19.10;99.90;;;;;;5012403;28;20080;-73
2022/10/27 10:03:16;;;;;;;0.00;0.00;;;19.60;99.90;;;;;;4994607;28;20402;-73
2022/10/27 10:05:43;;;;;;;0.00;0.00;;;20.10;99.90;;;;;;4994270;28;20164;-72
2022/10/27 10:08:24;;;;;;;0.00;0.00;;;20.50;99.90;;;;;;5012434;28;20034;-74
2022/10/27 10:10:57;;;;;;;0.00;0.00;;;21.00;99.90;;;;;;5012277;28;20014;-74
2022/10/27 10:13:23;;;;;;;0.05;0.05;;;21.50;99.90;;;;;;5006384;28;20030;-74
2022/10/27 10:16:04;;;;;;;0.00;0.00;;;22.40;98.30;;;;;;5024727;28;20060;-74
2022/10/27 10:18:30;;;;;;;0.00;0.00;;;22.80;96.30;;;;;;5014916;28;20144;-74
2022/10/27 10:21:00;;;;;;;0.28;0.28;;;23.10;94.60;;;;;;5031756;28;20438;-74
2022/10/27 10:23:47;;;;;;;0.25;0.20;;;23.40;93.80;;;;;;5028109;28;20494;-74
2022/10/27 10:26:20;;;;;;;0.00;0.00;;;23.50;93.00;;;;;;5018981;28;20060;-74
2022/10/27 10:28:49;;;;;;;12.63;1.65;;;23.40;92.50;;;;;;5030496;28;20049;-73
2022/10/27 10:31:22;;;;;;;3.58;1.05;;;23.50;91.90;;;;;;5012659;28;20063;-74
2022/10/27 10:33:48;;;;;;;0.13;0.13;;;23.70;91.60;;;;;;5011846;28;20105;-74
2022/10/27 10:36:25;;;;;;;0.00;0.00;;;23.60;90.40;;;;;;5011628;28;20101;-74
2022/10/27 10:38:59;;;;;;;0.00;0.00;;;23.80;89.80;;;;;;5011669;28;20079;-74
2022/10/27 10:41:26;;;;;;;0.00;0.00;;;24.20;86.40;;;;;;5013624;28;20061;-74
2022/10/27 10:44:14;;;;;;;0.00;0.00;;;24.70;85.40;;;;;;5031454;28;20029;-74
2022/10/27 10:46:52;;;;;;;0.10;0.10;;;24.90;83.30;;;;;;5030566;28;20028;-74
2022/10/27 10:49:22;;;;;;;0.00;0.00;;;25.20;80.40;;;;;;5029813;28;20497;-74
2022/10/27 10:51:55;;;;;;;0.00;0.00;;;25.50;79.70;;;;;;5030901;28;20053;-74
2022/10/27 10:54:27;;;;;;;0.00;0.00;;;25.60;76.60;;;;;;5032332;28;20033;-74
2022/10/27 10:56:54;;;;;;;0.00;0.00;;;26.10;74.80;;;;;;5017217;28;20018;-74
2022/10/27 10:59:25;;;;;;;0.00;0.00;;;26.30;71.50;;;;;;5035446;28;20048;-74
2022/10/27 11:01:55;;;;;;;0.00;0.00;;;26.30;71.20;;;;;;5017833;28;20053;-74
2022/10/27 11:04:25;;;;;;;0.00;0.00;;;26.70;69.20;;;;;;5035179;28;20025;-73
2022/10/27 11:07:04;;;;;;;0.00;0.00;;;27.10;67.80;;;;;;5035067;28;20054;-74
2022/10/27 11:09:52;;;;;;;0.65;0.47;;;27.30;65.50;;;;;;5035196;28;20503;-74
2022/10/27 11:12:31;;;;;;;0.00;0.00;;;27.60;65.10;;;;;;5034959;28;20155;-74
2022/10/27 11:15:12;;;;;;;0.00;0.00;;;27.50;64.90;;;;;;5033674;28;20056;-73
2022/10/27 11:17:41;;;;;;;0.20;0.20;;;28.00;63.10;;;;;;5017446;28;20029;-74
2022/10/27 11:20:19;;;;;;;0.40;0.40;;;28.50;60.40;;;;;;5035012;28;20029;-74
2022/10/27 11:22:46;;;;;;;0.00;0.00;;;28.90;59.40;;;;;;5033687;28;20061;-74
2022/10/27 11:25:23;;;;;;;0.00;0.00;;;28.80;60.80;;;;;;5034436;28;20017;-74
2022/10/27 11:28:10;;;;;;;0.00;0.00;;;29.00;60.20;;;;;;5035011;28;20031;-74
2022/10/27 11:30:42;;;;;;;1.38;0.30;;;29.30;60.10;;;;;;5034967;28;20021;-74
2022/10/27 11:33:40;;;;;;;0.43;0.43;;;29.20;58.30;;;;;;5017221;28;20025;-74
2022/10/27 11:36:23;;;;;;;0.08;0.08;;;29.60;58.30;;;;;;5000554;28;20041;-73
2022/10/27 11:39:04;;;;;;;0.10;0.10;;;29.90;58.00;;;;;;5035055;28;20148;-73
2022/10/27 11:41:40;;;;;;;0.20;0.20;;;29.20;59.70;;;;;;5014010;28;20068;-73
2022/10/27 11:44:32;;;;;;;0.00;0.00;;;28.90;61.40;;;;;;5023386;28;20096;-74
2022/10/27 11:47:16;;;;;;;0.00;0.00;;;28.70;61.70;;;;;;5014032;28;20498;-74
2022/10/27 11:50:20;;;;;;;0.00;0.00;;;28.60;62.20;;;;;;5014751;28;20080;-73
2022/10/27 11:52:51;;;;;;;0.00;0.00;;;28.50;61.30;;;;;;5020338;28;20029;-74
2022/10/27 11:55:21;;;;;;;0.00;0.00;;;28.90;58.70;;;;;;5034254;28;20047;-74
2022/10/27 11:58:13;;;;;;;5.22;0.57;;;29.00;59.30;;;;;;5034279;28;20049;-74
2022/10/27 12:01:06;;;;;;;0.00;0.00;;;28.90;60.60;;;;;;5034175;28;20477;-74
2022/10/27 12:03:45;;;;;;;0.00;0.00;;;29.20;59.80;;;;;;5016060;28;20038;-73
2022/10/27 12:06:48;;;;;;;0.00;0.00;;;29.10;60.30;;;;;;5032637;28;20486;-76
2022/10/27 12:09:39;;;;;;;1.65;0.55;;;29.20;59.80;;;;;;4999896;28;20034;-72
2022/10/27 12:12:35;;;;;;;0.00;0.00;;;29.10;61.10;;;;;;5034289;28;20089;-73
2022/10/27 12:15:05;;;;;;;0.00;0.00;;;28.30;62.90;;;;;;5034013;28;20025;-73
2022/10/27 12:17:47;;;;;;;0.00;0.00;;;28.20;63.20;;;;;;5033977;28;20029;-73
2022/10/27 12:20:19;;;;;;;0.00;0.00;;;28.30;63.10;;;;;;5034192;28;20382;-73
2022/10/27 12:23:04;;;;;;;0.00;0.00;;;29.00;61.10;;;;;;5033797;28;20026;-73
2022/10/27 12:25:40;;;;;;;0.05;0.03;;;28.70;61.90;;;;;;5015934;28;20022;-73
2022/10/27 12:28:11;;;;;;;0.00;0.00;;;29.00;60.50;;;;;;5032709;28;20021;-73
2022/10/27 12:30:41;;;;;;;0.10;0.10;;;29.10;60.90;;;;;;5015810;28;20501;-72
2022/10/27 12:33:30;;;;;;;0.73;0.73;;;29.20;60.40;;;;;;5034147;28;20034;-74
2022/10/27 12:36:05;;;;;;;0.00;0.00;;;28.90;59.80;;;;;;5015684;28;20033;-73
2022/10/27 12:39:24;;;;;;;8.48;0.52;;;28.70;60.40;;;;;;5033682;28;20059;-74
2022/10/27 12:42:15;;;;;;;0.00;0.00;;;28.10;62.40;;;;;;4934215;29;20040;-73
2022/10/27 12:44:56;;;;;;;1.65;1.55;;;28.60;62.00;;;;;;4902129;29;20028;-73
2022/10/27 12:47:27;;;;;;;0.10;0.10;;;28.10;60.60;;;;;;5017725;28;20503;-74
2022/10/27 12:49:56;;;;;;;0.00;0.00;;;28.20;60.60;;;;;;5015768;28;20031;-74
2022/10/27 12:52:25;;;;;;;0.00;0.00;;;28.10;61.10;;;;;;5033423;28;20116;-73
2022/10/27 12:55:15;;;;;;;0.00;0.00;;;27.80;61.50;;;;;;5033411;28;20033;-73
2022/10/27 12:58:04;;;;;;;0.00;0.00;;;27.50;62.10;;;;;;5033544;28;20021;-72
2022/10/27 13:01:00;;;;;;;0.00;0.00;;;26.90;63.80;;;;;;5015873;28;20037;-74
2022/10/27 13:04:03;;;;;;;0.47;0.32;;;26.20;64.70;;;;;;5033178;28;20537;-74
2022/10/27 13:06:35;;;;;;;0.10;0.10;;;25.60;67.00;;;;;;5015381;28;20500;-74